Sovereign — 9HUE9 — position and weather

sailwx.info

Track history (hours):
 
Tides and Currents Weather Stations Pressure Air Temp Water Temp Dewpoint Dewpoint Depression Visibility Wind Speed Wind Dir Waves Ship Positions

Sovereign

Last reported at 2015-May-26 06:09 UTC. Time now 2015-May-26 15:54 UTC.
Position N 40°50' E 014°17'.

Length 268 m; draft 7.8 m.

Type: Passenger vessel. MMSI: 249539000.

Date/timePositionNaut miles runAvg speedWind from/ knotsBaromVisibWave heightAir tempDewpointWater temp
2015-May-26 06:09N 40°50' E 014°17'4 6.4
2015-May-26 05:33N 40°47' E 014°14'1111.1
2015-May-26 04:33N 40°39' E 014°03'1414.3
2015-May-26 03:33N 40°38' E 013°44'1414.5
2015-May-26 02:33N 40°38' E 013°26'17514.5
2015-May-25 14:30N 40°55' E 009°35'3 2.8
2015-May-25 13:32N 40°55' E 009°31'0 0.0
2015-May-25 12:32N 40°55' E 009°31'0 0.0
2015-May-25 11:32N 40°55' E 009°31'0 0.0
2015-May-25 10:32N 40°55' E 009°31'0 0.0
2015-May-25 09:32N 40°55' E 009°31'0 0.0
2015-May-25 08:32N 40°55' E 009°31'0 0.0
2015-May-25 07:32N 40°55' E 009°31'0 0.0
2015-May-25 06:23N 40°55' E 009°31'259 8.7
2015-May-24 00:33N 41°16' E 003°49'2411.7
2015-May-23 22:27N 41°16' E 003°16'1311.4
2015-May-23 21:21N 41°16' E 002°60'911.5
2015-May-23 20:33N 41°16' E 002°47'10 9.7
2015-May-23 19:33N 41°16' E 002°34'1111.3
2015-May-23 18:33N 41°16' E 002°19'8 8.2
2015-May-23 17:33N 41°21' E 002°10'1 1.2
2015-May-23 16:30N 41°22' E 002°11'0 0.0
2015-May-23 13:30N 41°22' E 002°11'19810.2
2015-May-22 18:07N 42°48' E 006°11'916.0
2015-May-22 17:33N 42°52' E 006°22'1616.0
2015-May-22 16:33N 43°02' E 006°39'1615.9
2015-May-22 15:33N 43°14' E 006°53'1615.6
2015-May-22 14:33N 43°26' E 007°07'1614.1
2015-May-22 13:24N 43°40' E 007°18'2 0.9
2015-May-22 11:30N 43°42' E 007°19'0 0.0
2015-May-22 08:06N 43°42' E 007°19'0 0.1
2015-May-22 06:18N 43°42' E 007°19'0 0.1
2015-May-22 05:24N 43°42' E 007°19'0 0.2
2015-May-22 04:33N 43°42' E 007°19'6 6.3
2015-May-22 03:33N 43°39' E 007°27'4213.9
2015-May-22 00:34N 43°36' E 008°24'1514.8
2015-May-21 23:34N 43°35' E 008°45'1414.2
2015-May-21 22:34N 43°34' E 009°04'1414.5
2015-May-21 21:34N 43°34' E 009°24'1414.4
2015-May-21 20:34N 43°33' E 009°44'1414.1
2015-May-21 19:34N 43°30' E 010°03'1110.6
2015-May-21 18:34N 43°33' E 010°17'1 1.0
2015-May-21 17:21N 43°34' E 010°18'0 0.0
2015-May-21 16:33N 43°34' E 010°18'0 0.0
2015-May-21 15:33N 43°34' E 010°18'0 0.0
2015-May-21 14:33N 43°34' E 010°18'0 0.0
2015-May-21 13:33N 43°34' E 010°18'0 0.0
2015-May-21 12:33N 43°34' E 010°18'0 0.0
2015-May-21 11:33N 43°34' E 010°18'0 0.0
2015-May-21 10:33N 43°34' E 010°18'0 0.0
2015-May-21 09:33N 43°34' E 010°18'0 0.0
2015-May-21 08:30N 43°34' E 010°18'0 0.0
2015-May-21 07:33N 43°34' E 010°18'4 3.6
2015-May-21 06:34N 43°31' E 010°15'9 8.9
2015-May-21 05:34N 43°23' E 010°11'1211.8
2015-May-21 04:33N 43°11' E 010°09'1312.9
2015-May-21 03:33N 42°59' E 010°06'101 4.2
2015-May-20 03:26N 41°50' E 011°47'1315.2
2015-May-20 02:33N 41°38' E 011°55'1615.6
2015-May-20 01:33N 41°27' E 012°10'1515.2
2015-May-20 00:33N 41°17' E 012°24'1615.0
2015-May-19 23:31N 41°10' E 012°43'1915.0
2015-May-19 22:14N 41°03' E 013°06'1114.6
2015-May-19 21:30N 40°58' E 013°19'1010.5
2015-May-19 20:33N 40°52' E 013°30'1211.6
2015-May-19 19:33N 40°44' E 013°41'1413.7
2015-May-19 18:34N 40°38' E 013°57'1413.9
2015-May-19 17:34N 40°45' E 014°12'5 5.3
2015-May-19 16:32N 40°50' E 014°16'0 0.0
2015-May-19 15:32N 40°50' E 014°16'0 0.0
2015-May-19 14:32N 40°50' E 014°16'0 0.0
2015-May-19 12:32N 40°50' E 014°16'0 0.0
2015-May-19 07:32N 40°50' E 014°16'0 0.1
2015-May-19 06:33N 40°50' E 014°16'4 4.2
2015-May-19 05:34N 40°46' E 014°14'1414.2
2015-May-19 04:33N 40°38' E 013°59'1414.1
2015-May-19 03:33N 40°38' E 013°40'1414.4
2015-May-19 02:33N 40°40' E 013°21'1514.5
2015-May-19 01:33N 40°41' E 013°02'1514.7
2015-May-19 00:33N 40°43' E 012°43'1515.2
2015-May-18 23:33N 40°45' E 012°23'1514.9
2015-May-18 22:32N 40°46' E 012°03'1414.4
2015-May-18 21:33N 40°48' E 011°44'10014.3
2015-May-18 14:33N 40°55' E 009°32'1 0.5
2015-May-18 13:30N 40°55' E 009°31'0 0.0
2015-May-18 12:30N 40°55' E 009°31'0 0.0
2015-May-18 11:33N 40°55' E 009°31'0 0.0
2015-May-18 10:33N 40°55' E 009°31'0 0.0
2015-May-18 09:33N 40°55' E 009°31'0 0.0
2015-May-18 08:21N 40°55' E 009°31'0 0.0
2015-May-18 07:21N 40°55' E 009°31'0 0.0
2015-May-18 06:27N 40°55' E 009°31'0 0.0
2015-May-18 05:27N 40°55' E 009°31'0 0.0
2015-May-18 04:33N 40°55' E 009°31'26410.4
2015-May-17 03:07N 41°16' E 003°42'711.9
2015-May-17 02:33N 41°16' E 003°33'1211.8
2015-May-17 01:33N 41°15' E 003°17'1211.6
2015-May-17 00:33N 41°15' E 003°02'1212.0
2015-May-16 23:33N 41°16' E 002°46'1111.4
2015-May-16 22:33N 41°16' E 002°31'1610.5
2015-May-16 21:04N 41°19' E 002°10'3 5.0
2015-May-16 20:31N 41°21' E 002°11'0 0.0
2015-May-16 19:31N 41°21' E 002°11'0 0.0
2015-May-16 18:31N 41°21' E 002°11'0 0.0
2015-May-16 17:28N 41°21' E 002°11'0 0.0
2015-May-16 16:31N 41°21' E 002°11'0 0.0
2015-May-16 14:13N 41°21' E 002°11'0 0.0
2015-May-16 13:31N 41°21' E 002°11'  
Track history (hours):
 
Tides and Currents Weather Stations Pressure Air Temp Water Temp Dewpoint Dewpoint Depression Visibility Wind Speed Wind Dir Waves Ship Positions

Sovereign

Last reported at 2015-May-26 06:09 UTC. Time now 2015-May-26 15:54 UTC.
Position N 40°50' E 014°17'.

Length 268 m; draft 7.8 m.

Type: Passenger vessel. MMSI: 249539000.

Date/timePositionNaut miles runAvg speedWind from/ knotsBaromVisibWave heightAir tempDewpointWater temp
2015-May-26 06:09N 40°50' E 014°17'4 6.4
2015-May-26 05:33N 40°47' E 014°14'1111.1
2015-May-26 04:33N 40°39' E 014°03'1414.3
2015-May-26 03:33N 40°38' E 013°44'1414.5
2015-May-26 02:33N 40°38' E 013°26'17514.5
2015-May-25 14:30N 40°55' E 009°35'3 2.8
2015-May-25 13:32N 40°55' E 009°31'0 0.0
2015-May-25 12:32N 40°55' E 009°31'0 0.0
2015-May-25 11:32N 40°55' E 009°31'0 0.0
2015-May-25 10:32N 40°55' E 009°31'0 0.0
2015-May-25 09:32N 40°55' E 009°31'0 0.0
2015-May-25 08:32N 40°55' E 009°31'0 0.0
2015-May-25 07:32N 40°55' E 009°31'0 0.0
2015-May-25 06:23N 40°55' E 009°31'259 8.7
2015-May-24 00:33N 41°16' E 003°49'2411.7
2015-May-23 22:27N 41°16' E 003°16'1311.4
2015-May-23 21:21N 41°16' E 002°60'911.5
2015-May-23 20:33N 41°16' E 002°47'10 9.7
2015-May-23 19:33N 41°16' E 002°34'1111.3
2015-May-23 18:33N 41°16' E 002°19'8 8.2
2015-May-23 17:33N 41°21' E 002°10'1 1.2
2015-May-23 16:30N 41°22' E 002°11'0 0.0
2015-May-23 13:30N 41°22' E 002°11'19810.2
2015-May-22 18:07N 42°48' E 006°11'916.0
2015-May-22 17:33N 42°52' E 006°22'1616.0
2015-May-22 16:33N 43°02' E 006°39'1615.9
2015-May-22 15:33N 43°14' E 006°53'1615.6
2015-May-22 14:33N 43°26' E 007°07'1614.1
2015-May-22 13:24N 43°40' E 007°18'2 0.9
2015-May-22 11:30N 43°42' E 007°19'0 0.0
2015-May-22 08:06N 43°42' E 007°19'0 0.1
2015-May-22 06:18N 43°42' E 007°19'0 0.1
2015-May-22 05:24N 43°42' E 007°19'0 0.2
2015-May-22 04:33N 43°42' E 007°19'6 6.3
2015-May-22 03:33N 43°39' E 007°27'4213.9
2015-May-22 00:34N 43°36' E 008°24'1514.8
2015-May-21 23:34N 43°35' E 008°45'1414.2
2015-May-21 22:34N 43°34' E 009°04'1414.5
2015-May-21 21:34N 43°34' E 009°24'1414.4
2015-May-21 20:34N 43°33' E 009°44'1414.1
2015-May-21 19:34N 43°30' E 010°03'1110.6
2015-May-21 18:34N 43°33' E 010°17'1 1.0
2015-May-21 17:21N 43°34' E 010°18'0 0.0
2015-May-21 16:33N 43°34' E 010°18'0 0.0
2015-May-21 15:33N 43°34' E 010°18'0 0.0
2015-May-21 14:33N 43°34' E 010°18'0 0.0
2015-May-21 13:33N 43°34' E 010°18'0 0.0
2015-May-21 12:33N 43°34' E 010°18'0 0.0
2015-May-21 11:33N 43°34' E 010°18'0 0.0
2015-May-21 10:33N 43°34' E 010°18'0 0.0
2015-May-21 09:33N 43°34' E 010°18'0 0.0
2015-May-21 08:30N 43°34' E 010°18'0 0.0
2015-May-21 07:33N 43°34' E 010°18'4 3.6
2015-May-21 06:34N 43°31' E 010°15'9 8.9
2015-May-21 05:34N 43°23' E 010°11'1211.8
2015-May-21 04:33N 43°11' E 010°09'1312.9
2015-May-21 03:33N 42°59' E 010°06'101 4.2
2015-May-20 03:26N 41°50' E 011°47'1315.2
2015-May-20 02:33N 41°38' E 011°55'1615.6
2015-May-20 01:33N 41°27' E 012°10'1515.2
2015-May-20 00:33N 41°17' E 012°24'1615.0
2015-May-19 23:31N 41°10' E 012°43'1915.0
2015-May-19 22:14N 41°03' E 013°06'1114.6
2015-May-19 21:30N 40°58' E 013°19'1010.5
2015-May-19 20:33N 40°52' E 013°30'1211.6
2015-May-19 19:33N 40°44' E 013°41'1413.7
2015-May-19 18:34N 40°38' E 013°57'1413.9
2015-May-19 17:34N 40°45' E 014°12'5 5.3
2015-May-19 16:32N 40°50' E 014°16'0 0.0
2015-May-19 15:32N 40°50' E 014°16'0 0.0
2015-May-19 14:32N 40°50' E 014°16'0 0.0
2015-May-19 12:32N 40°50' E 014°16'0 0.0
2015-May-19 07:32N 40°50' E 014°16'0 0.1
2015-May-19 06:33N 40°50' E 014°16'4 4.2
2015-May-19 05:34N 40°46' E 014°14'1414.2
2015-May-19 04:33N 40°38' E 013°59'1414.1
2015-May-19 03:33N 40°38' E 013°40'1414.4
2015-May-19 02:33N 40°40' E 013°21'1514.5
2015-May-19 01:33N 40°41' E 013°02'1514.7
2015-May-19 00:33N 40°43' E 012°43'1515.2
2015-May-18 23:33N 40°45' E 012°23'1514.9
2015-May-18 22:32N 40°46' E 012°03'1414.4
2015-May-18 21:33N 40°48' E 011°44'10014.3
2015-May-18 14:33N 40°55' E 009°32'1 0.5
2015-May-18 13:30N 40°55' E 009°31'0 0.0
2015-May-18 12:30N 40°55' E 009°31'0 0.0
2015-May-18 11:33N 40°55' E 009°31'0 0.0
2015-May-18 10:33N 40°55' E 009°31'0 0.0
2015-May-18 09:33N 40°55' E 009°31'0 0.0
2015-May-18 08:21N 40°55' E 009°31'0 0.0
2015-May-18 07:21N 40°55' E 009°31'0 0.0
2015-May-18 06:27N 40°55' E 009°31'0 0.0
2015-May-18 05:27N 40°55' E 009°31'0 0.0
2015-May-18 04:33N 40°55' E 009°31'26410.4
2015-May-17 03:07N 41°16' E 003°42'711.9
2015-May-17 02:33N 41°16' E 003°33'1211.8
2015-May-17 01:33N 41°15' E 003°17'1211.6
2015-May-17 00:33N 41°15' E 003°02'1212.0
2015-May-16 23:33N 41°16' E 002°46'1111.4
2015-May-16 22:33N 41°16' E 002°31'1610.5
2015-May-16 21:04N 41°19' E 002°10'3 5.0
2015-May-16 20:31N 41°21' E 002°11'0 0.0
2015-May-16 19:31N 41°21' E 002°11'0 0.0
2015-May-16 18:31N 41°21' E 002°11'0 0.0
2015-May-16 17:28N 41°21' E 002°11'0 0.0
2015-May-16 16:31N 41°21' E 002°11'0 0.0
2015-May-16 14:13N 41°21' E 002°11'0 0.0
2015-May-16 13:31N 41°21' E 002°11'  

Dump ship's entire track history